sensor_id;sensor_type;location;lat;lon;timestamp;P1;durP1;ratioP1;P2;durP2;ratioP2
10469;SDS011;5282;47.052;15.458;2024-03-23T00:52:33;7.60;;;7.10;;
10469;SDS011;5282;47.052;15.458;2024-03-23T00:54:59;8.17;;;7.37;;
10469;SDS011;5282;47.052;15.458;2024-03-23T00:57:26;7.30;;;6.70;;
10469;SDS011;5282;47.052;15.458;2024-03-23T00:59:52;7.30;;;6.70;;
10469;SDS011;5282;47.052;15.458;2024-03-23T01:02:19;7.37;;;6.80;;
10469;SDS011;5282;47.052;15.458;2024-03-23T01:04:45;8.07;;;7.20;;
10469;SDS011;5282;47.052;15.458;2024-03-23T01:07:13;7.77;;;7.17;;
10469;SDS011;5282;47.052;15.458;2024-03-23T01:09:40;9.00;;;8.10;;
10469;SDS011;5282;47.052;15.458;2024-03-23T01:12:08;8.27;;;7.53;;
10469;SDS011;5282;47.052;15.458;2024-03-23T01:14:34;7.00;;;6.50;;
10469;SDS011;5282;47.052;15.458;2024-03-23T01:17:02;7.10;;;6.57;;
10469;SDS011;5282;47.052;15.458;2024-03-23T01:19:28;5.67;;;5.30;;
10469;SDS011;5282;47.052;15.458;2024-03-23T01:21:55;5.80;;;5.30;;
10469;SDS011;5282;47.052;15.458;2024-03-23T01:24:22;7.47;;;5.10;;
10469;SDS011;5282;47.052;15.458;2024-03-23T01:26:52;5.73;;;5.40;;
10469;SDS011;5282;47.052;15.458;2024-03-23T01:29:19;4.97;;;4.73;;
10469;SDS011;5282;47.052;15.458;2024-03-23T01:31:46;6.00;;;5.40;;
10469;SDS011;5282;47.052;15.458;2024-03-23T01:34:12;6.60;;;6.00;;
10469;SDS011;5282;47.052;15.458;2024-03-23T01:36:39;6.67;;;6.13;;
10469;SDS011;5282;47.052;15.458;2024-03-23T01:39:05;8.17;;;6.67;;
10469;SDS011;5282;47.052;15.458;2024-03-23T01:41:34;7.33;;;6.73;;
10469;SDS011;5282;47.052;15.458;2024-03-23T01:44:02;8.53;;;7.70;;
10469;SDS011;5282;47.052;15.458;2024-03-23T01:46:34;7.73;;;7.07;;
10469;SDS011;5282;47.052;15.458;2024-03-23T01:49:00;7.13;;;6.60;;
10469;SDS011;5282;47.052;15.458;2024-03-23T01:51:27;6.60;;;6.10;;
10469;SDS011;5282;47.052;15.458;2024-03-23T01:53:54;6.47;;;6.00;;
10469;SDS011;5282;47.052;15.458;2024-03-23T01:56:23;6.27;;;5.77;;
10469;SDS011;5282;47.052;15.458;2024-03-23T01:58:49;6.03;;;5.63;;
10469;SDS011;5282;47.052;15.458;2024-03-23T02:01:17;5.43;;;5.13;;
10469;SDS011;5282;47.052;15.458;2024-03-23T02:03:45;5.70;;;5.30;;
10469;SDS011;5282;47.052;15.458;2024-03-23T02:06:12;5.30;;;5.00;;
10469;SDS011;5282;47.052;15.458;2024-03-23T02:08:37;5.13;;;4.83;;
10469;SDS011;5282;47.052;15.458;2024-03-23T02:11:06;5.43;;;5.03;;
10469;SDS011;5282;47.052;15.458;2024-03-23T02:13:32;5.33;;;4.93;;
10469;SDS011;5282;47.052;15.458;2024-03-23T02:15:58;5.20;;;4.90;;
10469;SDS011;5282;47.052;15.458;2024-03-23T02:18:26;5.10;;;4.73;;
10469;SDS011;5282;47.052;15.458;2024-03-23T02:20:52;4.97;;;4.67;;
10469;SDS011;5282;47.052;15.458;2024-03-23T02:23:20;6.30;;;5.80;;
10469;SDS011;5282;47.052;15.458;2024-03-23T02:25:47;6.17;;;5.57;;
10469;SDS011;5282;47.052;15.458;2024-03-23T02:28:12;5.60;;;5.20;;
10469;SDS011;5282;47.052;15.458;2024-03-23T02:30:39;5.83;;;5.43;;
10469;SDS011;5282;47.052;15.458;2024-03-23T02:33:05;5.67;;;5.17;;
10469;SDS011;5282;47.052;15.458;2024-03-23T02:35:32;5.57;;;5.07;;
10469;SDS011;5282;47.052;15.458;2024-03-23T02:38:01;5.60;;;5.30;;
10469;SDS011;5282;47.052;15.458;2024-03-23T02:40:29;6.17;;;5.53;;
10469;SDS011;5282;47.052;15.458;2024-03-23T02:42:55;5.03;;;4.73;;
10469;SDS011;5282;47.052;15.458;2024-03-23T02:45:22;5.27;;;5.07;;
10469;SDS011;5282;47.052;15.458;2024-03-23T02:47:48;5.47;;;5.07;;
10469;SDS011;5282;47.052;15.458;2024-03-23T02:50:17;5.90;;;5.40;;
10469;SDS011;5282;47.052;15.458;2024-03-23T02:52:43;6.07;;;5.57;;
10469;SDS011;5282;47.052;15.458;2024-03-23T02:55:10;4.47;;;4.27;;
10469;SDS011;5282;47.052;15.458;2024-03-23T02:57:37;4.83;;;4.53;;
10469;SDS011;5282;47.052;15.458;2024-03-23T03:00:05;4.47;;;4.27;;
10469;SDS011;5282;47.052;15.458;2024-03-23T03:02:34;4.80;;;4.47;;
10469;SDS011;5282;47.052;15.458;2024-03-23T03:05:02;4.63;;;4.43;;
10469;SDS011;5282;47.052;15.458;2024-03-23T03:07:30;5.57;;;5.17;;
10469;SDS011;5282;47.052;15.458;2024-03-23T03:09:57;4.40;;;4.17;;
10469;SDS011;5282;47.052;15.458;2024-03-23T03:12:23;5.03;;;4.73;;
10469;SDS011;5282;47.052;15.458;2024-03-23T03:14:51;4.90;;;4.57;;
10469;SDS011;5282;47.052;15.458;2024-03-23T03:17:17;4.70;;;4.40;;
10469;SDS011;5282;47.052;15.458;2024-03-23T03:19:44;4.93;;;4.63;;
10469;SDS011;5282;47.052;15.458;2024-03-23T03:22:15;4.70;;;4.50;;
10469;SDS011;5282;47.052;15.458;2024-03-23T03:24:42;4.93;;;4.63;;
10469;SDS011;5282;47.052;15.458;2024-03-23T03:27:08;5.00;;;4.50;;
10469;SDS011;5282;47.052;15.458;2024-03-23T03:29:37;5.30;;;5.00;;
10469;SDS011;5282;47.052;15.458;2024-03-23T03:32:04;4.40;;;4.20;;
10469;SDS011;5282;47.052;15.458;2024-03-23T03:34:31;5.30;;;5.00;;
10469;SDS011;5282;47.052;15.458;2024-03-23T03:36:57;4.97;;;4.57;;
10469;SDS011;5282;47.052;15.458;2024-03-23T03:39:25;4.80;;;4.50;;
10469;SDS011;5282;47.052;15.458;2024-03-23T03:41:51;4.33;;;4.00;;
10469;SDS011;5282;47.052;15.458;2024-03-23T03:44:18;4.90;;;4.60;;
10469;SDS011;5282;47.052;15.458;2024-03-23T03:46:44;4.57;;;4.27;;
10469;SDS011;5282;47.052;15.458;2024-03-23T03:49:12;5.23;;;4.93;;
10469;SDS011;5282;47.052;15.458;2024-03-23T03:51:38;5.23;;;4.87;;
10469;SDS011;5282;47.052;15.458;2024-03-23T03:54:05;4.90;;;4.60;;
10469;SDS011;5282;47.052;15.458;2024-03-23T03:56:31;5.20;;;4.90;;
10469;SDS011;5282;47.052;15.458;2024-03-23T03:58:58;5.97;;;5.03;;
10469;SDS011;5282;47.052;15.458;2024-03-23T04:01:24;4.60;;;4.30;;
10469;SDS011;5282;47.052;15.458;2024-03-23T04:03:51;5.40;;;4.93;;
10469;SDS011;5282;47.052;15.458;2024-03-23T04:06:21;5.20;;;4.87;;
10469;SDS011;5282;47.052;15.458;2024-03-23T04:08:48;4.90;;;4.70;;
10469;SDS011;5282;47.052;15.458;2024-03-23T04:11:14;5.10;;;4.60;;
10469;SDS011;5282;47.052;15.458;2024-03-23T04:13:41;5.30;;;4.93;;
10469;SDS011;5282;47.052;15.458;2024-03-23T04:16:08;5.20;;;4.70;;
10469;SDS011;5282;47.052;15.458;2024-03-23T04:18:35;4.80;;;4.60;;
10469;SDS011;5282;47.052;15.458;2024-03-23T04:21:02;4.67;;;4.43;;
10469;SDS011;5282;47.052;15.458;2024-03-23T04:23:30;4.30;;;4.10;;
10469;SDS011;5282;47.052;15.458;2024-03-23T04:26:02;5.00;;;4.70;;
10469;SDS011;5282;47.052;15.458;2024-03-23T04:28:31;4.53;;;4.33;;
10469;SDS011;5282;47.052;15.458;2024-03-23T04:31:00;4.67;;;4.37;;
10469;SDS011;5282;47.052;15.458;2024-03-23T04:33:33;5.18;;;4.68;;
10469;SDS011;5282;47.052;15.458;2024-03-23T04:36:01;3.87;;;3.73;;
10469;SDS011;5282;47.052;15.458;2024-03-23T04:38:28;4.27;;;3.97;;
10469;SDS011;5282;47.052;15.458;2024-03-23T04:40:57;4.03;;;3.83;;
10469;SDS011;5282;47.052;15.458;2024-03-23T04:43:25;4.27;;;4.07;;
10469;SDS011;5282;47.052;15.458;2024-03-23T04:45:52;4.40;;;4.20;;
10469;SDS011;5282;47.052;15.458;2024-03-23T04:48:20;4.13;;;3.73;;
10469;SDS011;5282;47.052;15.458;2024-03-23T04:50:47;4.47;;;4.10;;
10469;SDS011;5282;47.052;15.458;2024-03-23T04:53:15;4.40;;;4.00;;
10469;SDS011;5282;47.052;15.458;2024-03-23T04:55:43;5.93;;;4.17;;
10469;SDS011;5282;47.052;15.458;2024-03-23T04:58:11;3.83;;;3.70;;
10469;SDS011;5282;47.052;15.458;2024-03-23T05:00:37;4.50;;;4.20;;
10469;SDS011;5282;47.052;15.458;2024-03-23T05:03:04;4.07;;;3.87;;
10469;SDS011;5282;47.052;15.458;2024-03-23T05:05:30;4.97;;;4.60;;
10469;SDS011;5282;47.052;15.458;2024-03-23T05:07:58;4.30;;;3.90;;
10469;SDS011;5282;47.052;15.458;2024-03-23T05:10:25;6.47;;;4.57;;
10469;SDS011;5282;47.052;15.458;2024-03-23T05:12:52;5.07;;;4.77;;
10469;SDS011;5282;47.052;15.458;2024-03-23T05:15:19;5.20;;;4.90;;
10469;SDS011;5282;47.052;15.458;2024-03-23T05:17:46;4.63;;;4.33;;
10469;SDS011;5282;47.052;15.458;2024-03-23T05:20:12;4.90;;;4.50;;
10469;SDS011;5282;47.052;15.458;2024-03-23T05:22:39;4.77;;;4.47;;
10469;SDS011;5282;47.052;15.458;2024-03-23T05:25:05;4.83;;;4.53;;
10469;SDS011;5282;47.052;15.458;2024-03-23T05:27:33;4.57;;;4.27;;
10469;SDS011;5282;47.052;15.458;2024-03-23T05:29:59;5.37;;;5.00;;
10469;SDS011;5282;47.052;15.458;2024-03-23T05:32:27;7.00;;;5.20;;
10469;SDS011;5282;47.052;15.458;2024-03-23T05:34:53;5.07;;;4.67;;
10469;SDS011;5282;47.052;15.458;2024-03-23T05:37:22;5.60;;;5.10;;
10469;SDS011;5282;47.052;15.458;2024-03-23T05:39:48;5.70;;;5.30;;
10469;SDS011;5282;47.052;15.458;2024-03-23T05:42:15;5.27;;;4.97;;
10469;SDS011;5282;47.052;15.458;2024-03-23T05:44:42;5.30;;;5.00;;
10469;SDS011;5282;47.052;15.458;2024-03-23T05:47:10;5.40;;;5.00;;
10469;SDS011;5282;47.052;15.458;2024-03-23T05:49:39;5.90;;;5.40;;
10469;SDS011;5282;47.052;15.458;2024-03-23T05:52:08;6.70;;;6.07;;
10469;SDS011;5282;47.052;15.458;2024-03-23T05:54:34;6.67;;;6.13;;
10469;SDS011;5282;47.052;15.458;2024-03-23T05:57:00;6.07;;;5.50;;
10469;SDS011;5282;47.052;15.458;2024-03-23T05:59:27;6.00;;;5.50;;
10469;SDS011;5282;47.052;15.458;2024-03-23T06:01:54;5.73;;;5.33;;
10469;SDS011;5282;47.052;15.458;2024-03-23T06:04:20;5.20;;;5.00;;
10469;SDS011;5282;47.052;15.458;2024-03-23T06:06:49;6.23;;;5.50;;
10469;SDS011;5282;47.052;15.458;2024-03-23T06:09:17;5.90;;;5.10;;
10469;SDS011;5282;47.052;15.458;2024-03-23T06:11:44;6.03;;;5.63;;
10469;SDS011;5282;47.052;15.458;2024-03-23T06:14:10;6.27;;;5.87;;
10469;SDS011;5282;47.052;15.458;2024-03-23T06:16:37;6.33;;;5.83;;
10469;SDS011;5282;47.052;15.458;2024-03-23T06:19:03;6.13;;;5.63;;
10469;SDS011;5282;47.052;15.458;2024-03-23T06:21:32;6.13;;;5.63;;
10469;SDS011;5282;47.052;15.458;2024-03-23T06:23:59;6.60;;;5.80;;
10469;SDS011;5282;47.052;15.458;2024-03-23T06:26:26;6.27;;;5.77;;
10469;SDS011;5282;47.052;15.458;2024-03-23T06:28:52;8.57;;;6.40;;
10469;SDS011;5282;47.052;15.458;2024-03-23T06:31:19;7.10;;;6.40;;
10469;SDS011;5282;47.052;15.458;2024-03-23T06:33:45;6.23;;;5.73;;
10469;SDS011;5282;47.052;15.458;2024-03-23T06:36:12;6.40;;;5.90;;
10469;SDS011;5282;47.052;15.458;2024-03-23T06:38:38;8.00;;;6.40;;
10469;SDS011;5282;47.052;15.458;2024-03-23T06:41:06;6.20;;;5.87;;
10469;SDS011;5282;47.052;15.458;2024-03-23T06:43:32;6.43;;;5.90;;
10469;SDS011;5282;47.052;15.458;2024-03-23T06:45:59;6.60;;;6.10;;
10469;SDS011;5282;47.052;15.458;2024-03-23T06:48:25;6.10;;;5.60;;
10469;SDS011;5282;47.052;15.458;2024-03-23T06:50:55;7.13;;;6.40;;
10469;SDS011;5282;47.052;15.458;2024-03-23T06:53:22;6.53;;;6.03;;
10469;SDS011;5282;47.052;15.458;2024-03-23T06:55:50;6.10;;;5.70;;
10469;SDS011;5282;47.052;15.458;2024-03-23T06:58:20;5.80;;;5.40;;
10469;SDS011;5282;47.052;15.458;2024-03-23T07:00:46;6.07;;;5.73;;
10469;SDS011;5282;47.052;15.458;2024-03-23T07:03:14;6.60;;;5.13;;
10469;SDS011;5282;47.052;15.458;2024-03-23T07:05:40;6.37;;;5.93;;
10469;SDS011;5282;47.052;15.458;2024-03-23T07:08:08;6.00;;;5.50;;
10469;SDS011;5282;47.052;15.458;2024-03-23T07:10:33;6.20;;;5.90;;
10469;SDS011;5282;47.052;15.458;2024-03-23T07:13:00;6.60;;;5.90;;
10469;SDS011;5282;47.052;15.458;2024-03-23T07:15:28;5.47;;;5.13;;
10469;SDS011;5282;47.052;15.458;2024-03-23T07:17:54;5.97;;;5.67;;
10469;SDS011;5282;47.052;15.458;2024-03-23T07:20:21;5.30;;;5.00;;
10469;SDS011;5282;47.052;15.458;2024-03-23T07:22:48;6.00;;;5.50;;
10469;SDS011;5282;47.052;15.458;2024-03-23T07:25:14;6.10;;;5.70;;
10469;SDS011;5282;47.052;15.458;2024-03-23T07:27:42;6.10;;;5.70;;
10469;SDS011;5282;47.052;15.458;2024-03-23T07:30:08;6.63;;;6.03;;
10469;SDS011;5282;47.052;15.458;2024-03-23T07:32:36;6.40;;;5.90;;
10469;SDS011;5282;47.052;15.458;2024-03-23T07:35:02;6.67;;;6.03;;
10469;SDS011;5282;47.052;15.458;2024-03-23T07:37:30;6.97;;;6.33;;
10469;SDS011;5282;47.052;15.458;2024-03-23T07:39:56;6.27;;;5.97;;
10469;SDS011;5282;47.052;15.458;2024-03-23T07:42:25;6.60;;;6.00;;
10469;SDS011;5282;47.052;15.458;2024-03-23T07:44:52;5.77;;;5.40;;
10469;SDS011;5282;47.052;15.458;2024-03-23T07:47:20;6.77;;;6.20;;
10469;SDS011;5282;47.052;15.458;2024-03-23T07:49:47;6.47;;;6.07;;
10469;SDS011;5282;47.052;15.458;2024-03-23T07:52:14;7.07;;;6.57;;
10469;SDS011;5282;47.052;15.458;2024-03-23T07:54:40;7.10;;;6.60;;
10469;SDS011;5282;47.052;15.458;2024-03-23T07:57:07;7.40;;;6.67;;
10469;SDS011;5282;47.052;15.458;2024-03-23T07:59:33;6.90;;;6.40;;
10469;SDS011;5282;47.052;15.458;2024-03-23T08:01:59;7.00;;;6.40;;
10469;SDS011;5282;47.052;15.458;2024-03-23T08:04:26;7.23;;;6.17;;
10469;SDS011;5282;47.052;15.458;2024-03-23T08:06:55;7.33;;;6.83;;
10469;SDS011;5282;47.052;15.458;2024-03-23T08:09:20;7.33;;;6.80;;
10469;SDS011;5282;47.052;15.458;2024-03-23T08:11:48;7.50;;;7.00;;
10469;SDS011;5282;47.052;15.458;2024-03-23T08:14:14;7.00;;;6.50;;
10469;SDS011;5282;47.052;15.458;2024-03-23T08:16:41;8.57;;;7.00;;
10469;SDS011;5282;47.052;15.458;2024-03-23T08:19:13;6.97;;;6.47;;
10469;SDS011;5282;47.052;15.458;2024-03-23T08:21:39;7.30;;;6.80;;
10469;SDS011;5282;47.052;15.458;2024-03-23T08:24:08;7.93;;;7.43;;
10469;SDS011;5282;47.052;15.458;2024-03-23T08:26:34;7.43;;;6.93;;
10469;SDS011;5282;47.052;15.458;2024-03-23T08:29:02;7.93;;;7.33;;
10469;SDS011;5282;47.052;15.458;2024-03-23T08:31:29;7.67;;;7.00;;
10469;SDS011;5282;47.052;15.458;2024-03-23T08:33:56;6.90;;;6.40;;
10469;SDS011;5282;47.052;15.458;2024-03-23T08:36:22;7.17;;;6.57;;
10469;SDS011;5282;47.052;15.458;2024-03-23T08:38:49;7.53;;;6.87;;
10469;SDS011;5282;47.052;15.458;2024-03-23T08:41:17;7.77;;;7.07;;
10469;SDS011;5282;47.052;15.458;2024-03-23T08:43:43;7.23;;;6.73;;
10469;SDS011;5282;47.052;15.458;2024-03-23T08:46:10;7.33;;;6.73;;
10469;SDS011;5282;47.052;15.458;2024-03-23T08:48:38;7.53;;;6.83;;
10469;SDS011;5282;47.052;15.458;2024-03-23T08:51:05;7.00;;;6.50;;
10469;SDS011;5282;47.052;15.458;2024-03-23T08:53:34;6.70;;;6.30;;
10469;SDS011;5282;47.052;15.458;2024-03-23T08:56:00;7.40;;;6.80;;
10469;SDS011;5282;47.052;15.458;2024-03-23T08:58:30;7.13;;;6.47;;
10469;SDS011;5282;47.052;15.458;2024-03-23T09:00:56;7.17;;;6.63;;
10469;SDS011;5282;47.052;15.458;2024-03-23T09:03:29;7.87;;;7.17;;
10469;SDS011;5282;47.052;15.458;2024-03-23T09:05:55;7.57;;;6.80;;
10469;SDS011;5282;47.052;15.458;2024-03-23T09:08:23;6.30;;;5.80;;
10469;SDS011;5282;47.052;15.458;2024-03-23T09:10:49;6.27;;;5.87;;
10469;SDS011;5282;47.052;15.458;2024-03-23T09:13:16;6.50;;;6.10;;
10469;SDS011;5282;47.052;15.458;2024-03-23T09:15:47;6.30;;;5.87;;
10469;SDS011;5282;47.052;15.458;2024-03-23T09:18:14;6.00;;;5.60;;
10469;SDS011;5282;47.052;15.458;2024-03-23T09:20:40;6.40;;;5.80;;
10469;SDS011;5282;47.052;15.458;2024-03-23T09:23:07;6.07;;;5.70;;
10469;SDS011;5282;47.052;15.458;2024-03-23T09:25:35;5.80;;;5.50;;
10469;SDS011;5282;47.052;15.458;2024-03-23T09:28:03;5.30;;;4.90;;
10469;SDS011;5282;47.052;15.458;2024-03-23T09:30:29;5.33;;;5.03;;
10469;SDS011;5282;47.052;15.458;2024-03-23T09:32:58;5.23;;;4.93;;
10469;SDS011;5282;47.052;15.458;2024-03-23T09:35:24;5.47;;;4.97;;
10469;SDS011;5282;47.052;15.458;2024-03-23T09:37:50;4.77;;;4.57;;
10469;SDS011;5282;47.052;15.458;2024-03-23T09:40:16;5.13;;;4.73;;
10469;SDS011;5282;47.052;15.458;2024-03-23T09:42:43;5.53;;;5.10;;
10469;SDS011;5282;47.052;15.458;2024-03-23T09:45:16;5.40;;;5.10;;
10469;SDS011;5282;47.052;15.458;2024-03-23T09:47:46;4.50;;;4.30;;
10469;SDS011;5282;47.052;15.458;2024-03-23T09:50:13;5.70;;;5.20;;
10469;SDS011;5282;47.052;15.458;2024-03-23T09:52:41;5.20;;;4.80;;
10469;SDS011;5282;47.052;15.458;2024-03-23T09:55:08;4.70;;;4.40;;
10469;SDS011;5282;47.052;15.458;2024-03-23T09:57:35;4.50;;;4.30;;
10469;SDS011;5282;47.052;15.458;2024-03-23T10:00:01;4.87;;;4.37;;
10469;SDS011;5282;47.052;15.458;2024-03-23T10:02:29;6.73;;;5.07;;
10469;SDS011;5282;47.052;15.458;2024-03-23T10:04:55;5.00;;;4.70;;
10469;SDS011;5282;47.052;15.458;2024-03-23T10:07:25;5.20;;;4.80;;
10469;SDS011;5282;47.052;15.458;2024-03-23T10:09:50;4.47;;;4.07;;
10469;SDS011;5282;47.052;15.458;2024-03-23T10:12:18;4.83;;;4.20;;
10469;SDS011;5282;47.052;15.458;2024-03-23T10:14:45;4.20;;;3.90;;
10469;SDS011;5282;47.052;15.458;2024-03-23T10:17:13;4.77;;;4.10;;
10469;SDS011;5282;47.052;15.458;2024-03-23T10:19:40;4.10;;;3.90;;
10469;SDS011;5282;47.052;15.458;2024-03-23T10:22:09;4.10;;;3.80;;
10469;SDS011;5282;47.052;15.458;2024-03-23T10:24:36;4.70;;;4.40;;
10469;SDS011;5282;47.052;15.458;2024-03-23T10:27:04;4.17;;;3.87;;
10469;SDS011;5282;47.052;15.458;2024-03-23T10:29:30;4.40;;;4.20;;
10469;SDS011;5282;47.052;15.458;2024-03-23T10:32:09;4.50;;;4.30;;
10469;SDS011;5282;47.052;15.458;2024-03-23T10:34:36;4.70;;;4.50;;
10469;SDS011;5282;47.052;15.458;2024-03-23T10:37:04;4.30;;;4.10;;
10469;SDS011;5282;47.052;15.458;2024-03-23T10:39:32;4.57;;;4.37;;
10469;SDS011;5282;47.052;15.458;2024-03-23T10:42:03;4.60;;;4.30;;
10469;SDS011;5282;47.052;15.458;2024-03-23T10:44:30;4.53;;;4.30;;
10469;SDS011;5282;47.052;15.458;2024-03-23T10:46:58;4.23;;;3.93;;
10469;SDS011;5282;47.052;15.458;2024-03-23T10:49:25;3.67;;;3.47;;
10469;SDS011;5282;47.052;15.458;2024-03-23T10:51:56;3.63;;;3.53;;
10469;SDS011;5282;47.052;15.458;2024-03-23T10:54:22;3.97;;;3.77;;
10469;SDS011;5282;47.052;15.458;2024-03-23T10:56:51;3.93;;;3.07;;
10469;SDS011;5282;47.052;15.458;2024-03-23T10:59:21;3.20;;;3.00;;
10469;SDS011;5282;47.052;15.458;2024-03-23T11:01:55;3.73;;;3.53;;
10469;SDS011;5282;47.052;15.458;2024-03-23T11:04:29;3.40;;;3.20;;
10469;SDS011;5282;47.052;15.458;2024-03-23T11:06:57;3.20;;;3.10;;
10469;SDS011;5282;47.052;15.458;2024-03-23T11:09:38;2.80;;;2.60;;
10469;SDS011;5282;47.052;15.458;2024-03-23T11:12:17;2.40;;;2.30;;
10469;SDS011;5282;47.052;15.458;2024-03-23T11:14:53;3.37;;;3.27;;
10469;SDS011;5282;47.052;15.458;2024-03-23T11:17:21;3.20;;;3.10;;
10469;SDS011;5282;47.052;15.458;2024-03-23T11:19:55;3.10;;;2.90;;
10469;SDS011;5282;47.052;15.458;2024-03-23T11:25:15;3.80;;;3.70;;
10469;SDS011;5282;47.052;15.458;2024-03-23T11:27:43;4.55;;;4.25;;
10469;SDS011;5282;47.052;15.458;2024-03-23T11:30:15;3.70;;;3.53;;
10469;SDS011;5282;47.052;15.458;2024-03-23T11:32:44;3.80;;;3.60;;
10469;SDS011;5282;47.052;15.458;2024-03-23T11:35:11;4.00;;;3.90;;
10469;SDS011;5282;47.052;15.458;2024-03-23T11:38:01;4.18;;;4.07;;
10469;SDS011;5282;47.052;15.458;2024-03-23T11:40:30;3.97;;;3.77;;
10469;SDS011;5282;47.052;15.458;2024-03-23T11:42:58;4.32;;;3.92;;
10469;SDS011;5282;47.052;15.458;2024-03-23T11:45:26;3.67;;;3.58;;
10469;SDS011;5282;47.052;15.458;2024-03-23T11:48:04;4.07;;;3.83;;
10469;SDS011;5282;47.052;15.458;2024-03-23T11:50:31;4.85;;;4.35;;
10469;SDS011;5282;47.052;15.458;2024-03-23T11:53:06;4.57;;;4.38;;
10469;SDS011;5282;47.052;15.458;2024-03-23T11:55:44;4.07;;;3.88;;
10469;SDS011;5282;47.052;15.458;2024-03-23T11:58:12;4.47;;;4.18;;
10469;SDS011;5282;47.052;15.458;2024-03-23T12:00:41;4.50;;;4.30;;
10469;SDS011;5282;47.052;15.458;2024-03-23T12:03:08;4.22;;;4.03;;
10469;SDS011;5282;47.052;15.458;2024-03-23T12:05:35;3.83;;;3.70;;
10469;SDS011;5282;47.052;15.458;2024-03-23T12:08:16;5.03;;;4.65;;
10469;SDS011;5282;47.052;15.458;2024-03-23T12:10:44;4.70;;;4.40;;
10469;SDS011;5282;47.052;15.458;2024-03-23T12:13:14;4.15;;;4.05;;
10469;SDS011;5282;47.052;15.458;2024-03-23T12:15:44;4.03;;;3.92;;
10469;SDS011;5282;47.052;15.458;2024-03-23T12:18:11;4.28;;;4.07;;
10469;SDS011;5282;47.052;15.458;2024-03-23T12:20:37;3.88;;;3.67;;
10469;SDS011;5282;47.052;15.458;2024-03-23T12:23:05;4.60;;;4.40;;
10469;SDS011;5282;47.052;15.458;2024-03-23T12:25:35;3.83;;;3.72;;
10469;SDS011;5282;47.052;15.458;2024-03-23T12:28:02;4.25;;;4.05;;
10469;SDS011;5282;47.052;15.458;2024-03-23T12:30:31;4.65;;;4.35;;
10469;SDS011;5282;47.052;15.458;2024-03-23T12:33:00;4.40;;;4.20;;
10469;SDS011;5282;47.052;15.458;2024-03-23T12:35:28;4.18;;;4.07;;
10469;SDS011;5282;47.052;15.458;2024-03-23T12:37:55;3.97;;;3.80;;
10469;SDS011;5282;47.052;15.458;2024-03-23T12:40:21;3.90;;;3.72;;
10469;SDS011;5282;47.052;15.458;2024-03-23T12:42:48;3.92;;;3.83;;
10469;SDS011;5282;47.052;15.458;2024-03-23T12:45:14;3.35;;;3.25;;
10469;SDS011;5282;47.052;15.458;2024-03-23T12:47:41;3.25;;;3.15;;
10469;SDS011;5282;47.052;15.458;2024-03-23T12:50:09;3.15;;;3.05;;
10469;SDS011;5282;47.052;15.458;2024-03-23T12:52:36;3.88;;;3.60;;
10469;SDS011;5282;47.052;15.458;2024-03-23T12:55:02;3.30;;;3.20;;
10469;SDS011;5282;47.052;15.458;2024-03-23T12:57:31;3.22;;;3.03;;
10469;SDS011;5282;47.052;15.458;2024-03-23T12:59:57;3.53;;;3.42;;
10469;SDS011;5282;47.052;15.458;2024-03-23T13:02:24;3.33;;;3.22;;
10469;SDS011;5282;47.052;15.458;2024-03-23T13:04:50;3.30;;;3.10;;
10469;SDS011;5282;47.052;15.458;2024-03-23T13:07:20;3.10;;;3.00;;
10469;SDS011;5282;47.052;15.458;2024-03-23T13:09:46;3.22;;;2.90;;
10469;SDS011;5282;47.052;15.458;2024-03-23T13:12:14;3.30;;;3.20;;
10469;SDS011;5282;47.052;15.458;2024-03-23T13:14:40;3.30;;;3.03;;
10469;SDS011;5282;47.052;15.458;2024-03-23T13:17:07;3.05;;;2.95;;
10469;SDS011;5282;47.052;15.458;2024-03-23T13:19:33;3.00;;;2.85;;
10469;SDS011;5282;47.052;15.458;2024-03-23T13:22:00;2.92;;;2.70;;
10469;SDS011;5282;47.052;15.458;2024-03-23T13:24:28;2.55;;;2.50;;
10469;SDS011;5282;47.052;15.458;2024-03-23T13:26:55;2.60;;;2.50;;
10469;SDS011;5282;47.052;15.458;2024-03-23T13:29:21;2.90;;;2.70;;
10469;SDS011;5282;47.052;15.458;2024-03-23T13:31:49;2.70;;;2.58;;
10469;SDS011;5282;47.052;15.458;2024-03-23T13:34:16;2.97;;;2.60;;
10469;SDS011;5282;47.052;15.458;2024-03-23T13:36:44;2.30;;;2.20;;
10469;SDS011;5282;47.052;15.458;2024-03-23T13:39:10;2.57;;;2.50;;
10469;SDS011;5282;47.052;15.458;2024-03-23T13:41:39;2.80;;;2.70;;
10469;SDS011;5282;47.052;15.458;2024-03-23T13:44:06;2.97;;;2.87;;
10469;SDS011;5282;47.052;15.458;2024-03-23T13:46:33;3.10;;;2.80;;
10469;SDS011;5282;47.052;15.458;2024-03-23T13:48:59;3.17;;;2.97;;
10469;SDS011;5282;47.052;15.458;2024-03-23T13:51:26;3.03;;;2.83;;
10469;SDS011;5282;47.052;15.458;2024-03-23T13:53:52;3.07;;;2.97;;
10469;SDS011;5282;47.052;15.458;2024-03-23T13:56:20;3.13;;;2.90;;
10469;SDS011;5282;47.052;15.458;2024-03-23T13:58:47;2.93;;;2.73;;
10469;SDS011;5282;47.052;15.458;2024-03-23T14:01:14;2.97;;;2.88;;
10469;SDS011;5282;47.052;15.458;2024-03-23T14:03:40;3.20;;;3.10;;
10469;SDS011;5282;47.052;15.458;2024-03-23T14:06:07;3.10;;;3.00;;
10469;SDS011;5282;47.052;15.458;2024-03-23T14:08:34;2.70;;;2.60;;
10469;SDS011;5282;47.052;15.458;2024-03-23T14:11:04;3.10;;;3.00;;
10469;SDS011;5282;47.052;15.458;2024-03-23T14:13:30;3.20;;;2.93;;
10469;SDS011;5282;47.052;15.458;2024-03-23T14:15:58;3.23;;;2.70;;
10469;SDS011;5282;47.052;15.458;2024-03-23T14:18:24;3.20;;;2.90;;
10469;SDS011;5282;47.052;15.458;2024-03-23T14:20:52;7.33;;;3.20;;
10469;SDS011;5282;47.052;15.458;2024-03-23T14:23:23;3.10;;;2.90;;
10469;SDS011;5282;47.052;15.458;2024-03-23T14:25:52;3.50;;;3.20;;
10469;SDS011;5282;47.052;15.458;2024-03-23T14:28:18;3.20;;;3.10;;
10469;SDS011;5282;47.052;15.458;2024-03-23T14:30:45;3.20;;;3.10;;
10469;SDS011;5282;47.052;15.458;2024-03-23T14:33:12;3.30;;;3.20;;
10469;SDS011;5282;47.052;15.458;2024-03-23T14:35:39;3.00;;;2.80;;
10469;SDS011;5282;47.052;15.458;2024-03-23T14:38:05;3.00;;;2.90;;
10469;SDS011;5282;47.052;15.458;2024-03-23T14:40:32;3.10;;;3.00;;
10469;SDS011;5282;47.052;15.458;2024-03-23T14:42:58;3.40;;;3.00;;
10469;SDS011;5282;47.052;15.458;2024-03-23T14:45:26;2.87;;;2.77;;
10469;SDS011;5282;47.052;15.458;2024-03-23T14:47:52;3.10;;;3.00;;
10469;SDS011;5282;47.052;15.458;2024-03-23T14:50:20;3.23;;;3.10;;
10469;SDS011;5282;47.052;15.458;2024-03-23T14:52:46;2.80;;;2.70;;
10469;SDS011;5282;47.052;15.458;2024-03-23T14:55:13;3.13;;;3.03;;
10469;SDS011;5282;47.052;15.458;2024-03-23T14:57:40;2.80;;;2.60;;
10469;SDS011;5282;47.052;15.458;2024-03-23T15:00:07;2.70;;;2.60;;
10469;SDS011;5282;47.052;15.458;2024-03-23T15:02:35;2.97;;;2.77;;
10469;SDS011;5282;47.052;15.458;2024-03-23T15:05:03;3.37;;;3.07;;
10469;SDS011;5282;47.052;15.458;2024-03-23T15:07:31;2.87;;;2.77;;
10469;SDS011;5282;47.052;15.458;2024-03-23T15:09:58;2.80;;;2.70;;
10469;SDS011;5282;47.052;15.458;2024-03-23T15:12:24;3.23;;;3.03;;
10469;SDS011;5282;47.052;15.458;2024-03-23T15:14:51;3.17;;;3.07;;
10469;SDS011;5282;47.052;15.458;2024-03-23T15:17:17;3.13;;;3.03;;
10469;SDS011;5282;47.052;15.458;2024-03-23T15:19:44;2.43;;;2.33;;
10469;SDS011;5282;47.052;15.458;2024-03-23T15:22:10;4.07;;;1.83;;
10469;SDS011;5282;47.052;15.458;2024-03-23T15:24:38;5.53;;;1.30;;
10469;SDS011;5282;47.052;15.458;2024-03-23T15:27:04;7.27;;;1.33;;
10469;SDS011;5282;47.052;15.458;2024-03-23T15:29:34;9.97;;;1.57;;
10469;SDS011;5282;47.052;15.458;2024-03-23T15:32:00;0.90;;;0.70;;
10469;SDS011;5282;47.052;15.458;2024-03-23T15:34:28;1.40;;;0.57;;
10469;SDS011;5282;47.052;15.458;2024-03-23T15:36:54;1.63;;;0.47;;
10469;SDS011;5282;47.052;15.458;2024-03-23T15:39:21;4.93;;;0.63;;
10469;SDS011;5282;47.052;15.458;2024-03-23T15:41:49;5.50;;;0.70;;
10469;SDS011;5282;47.052;15.458;2024-03-23T15:44:15;0.73;;;0.50;;